Anoka, Minnesota
Current Conditions -  °F | °C
As of 3:41 AM on Sunday 23 Nov 2014 (Local Time) from KANE Reporting Station
Broken Clouds Broken Clouds  
Wind Chill: 45°   Ceiling: 2100
Heat Index: 48°   Visibility: 5mi
Dew Point: 48°   Wind: 8mph
Humidity: 100%   Direction: 200°SSW
Pressure: 29.44"   Gusts: NA
Location:  45.2°N, 93.39°W
Report Text: KANE 230941Z AUTO 20007KT 5SM SCT014 BKN021 09/09 A2944 RMK AO2
Loading
Personal Weather Stations






























Interactive Weather Map New forecast layout! Learn more

10-Day Weather Forecast

Advertisements
Track Severe Weather on mobile